< Typhoon 200919 2009 Season Typhoon 200921 >
Typhoon 200920 (LUPIT)
General InformationTrack Information on Google MapsDetailed Wind InformationAccess Analytics MapList of All Images || NewsDisaster Info.WeblogTrackbackTyphoon FrontTwiphoonTyphoon ImaginationResourceGoogle EarthGE AnimationAtom FeedGeoJSON
Detalied Best Track (Time Zone = UTC)
Year Month Day Hour Lat. Long. Pressure (hPa) Wind (kt) Class Image Chart
2009 10 14 12 10.9 148.8 1006 0 2 Image Chart
2009 10 14 18 11.2 146.8 1004 0 2 Image Chart
2009 10 15 00 11.4 144.3 1004 0 2 Image Chart
2009 10 15 06 11.8 142.1 1004 0 2 Image Chart
2009 10 15 12 12.1 140.2 1002 35 3 Image Chart
2009 10 15 18 12.4 139.1 1000 40 3 Image Chart
2009 10 16 00 13.2 137.4 992 45 3 Image Chart
2009 10 16 06 13.9 136.0 980 55 4 Image Chart
2009 10 16 12 14.1 134.3 975 60 4 Image Chart
2009 10 16 18 14.5 133.2 970 65 5 Image Chart
2009 10 17 00 15.1 132.7 965 70 5 Image Chart
2009 10 17 06 15.7 132.3 955 80 5 Image Chart
2009 10 17 12 16.1 132.3 950 85 5 Image Chart
2009 10 17 18 16.7 132.5 950 85 5 Image Chart
2009 10 18 00 17.1 132.9 940 90 5 Image Chart
2009 10 18 06 17.3 133.6 940 90 5 Image Chart
2009 10 18 12 17.6 134.0 940 90 5 Image Chart
2009 10 18 18 18.0 134.2 930 95 5 Image Chart
2009 10 19 00 18.5 134.1 930 95 5 Image Chart
2009 10 19 06 19.0 133.2 930 95 5 Image Chart
2009 10 19 12 19.3 132.4 940 90 5 Image Chart
2009 10 19 18 19.8 131.5 945 85 5 Image Chart
2009 10 20 00 20.1 130.6 950 80 5 Image Chart
2009 10 20 06 20.5 129.7 950 80 5 Image Chart
2009 10 20 12 20.6 128.9 960 75 5 Image Chart
2009 10 20 18 20.5 127.9 960 75 5 Image Chart
2009 10 21 00 20.2 127.1 965 70 5 Image Chart
2009 10 21 06 19.8 126.3 965 70 5 Image Chart
2009 10 21 12 19.3 125.7 965 70 5 Image Chart
2009 10 21 18 19.1 125.4 965 70 5 Image Chart
2009 10 22 00 18.9 124.8 965 70 5 Image Chart
2009 10 22 06 18.9 124.4 965 70 5 Image Chart
2009 10 22 12 18.9 124.0 970 65 5 Image Chart
2009 10 22 18 19.0 123.8 970 65 5 Image Chart
2009 10 23 00 19.1 123.6 970 65 5 Image Chart
2009 10 23 06 19.4 123.7 975 60 4 Image Chart
2009 10 23 12 19.8 124.1 980 55 4 Image Chart
2009 10 23 18 20.4 124.6 980 55 4 Image Chart
2009 10 24 00 21.4 124.9 980 55 4 Image Chart
2009 10 24 06 22.3 125.4 980 55 4 Image Chart
2009 10 24 12 23.1 125.8 980 55 4 Image Chart
2009 10 24 18 23.4 126.6 980 55 4 Image Chart
2009 10 25 00 24.3 127.3 980 55 4 Image Chart
2009 10 25 03 24.6 127.9 980 55 4 Image Chart
2009 10 25 06 24.9 128.6 980 55 4 Image Chart
2009 10 25 09 25.2 129.4 980 55 4 Image Chart
2009 10 25 12 25.7 130.1 980 55 4 Image Chart
2009 10 25 15 26.2 130.8 980 55 4 Image Chart
2009 10 25 18 26.5 131.7 980 55 4 Image Chart
2009 10 25 21 27.0 132.7 980 55 4 Image Chart
2009 10 26 00 27.5 133.4 980 55 4 Image Chart
2009 10 26 06 29.1 135.8 980 55 4 Image Chart
2009 10 26 09 30.2 137.4 980 55 4 Image Chart
2009 10 26 12 31.3 139.1 980 55 4 Image Chart
2009 10 26 15 32.4 140.7 980 55 4 Image Chart
2009 10 26 18 34.0 142.8 980 55 4 Image Chart
2009 10 26 21 35.9 144.6 980 55 4 Image Chart
2009 10 27 00 38.3 146.1 972 0 6 Image Chart
2009 10 27 06 41.8 149.0 964 0 6 Image Chart
2009 10 27 12 44.3 151.6 956 0 6 Image Chart
2009 10 27 18 46.2 155.5 956 0 6 Image Chart
2009 10 28 00 47.9 159.3 956 0 6 Image Chart
2009 10 28 06 49.5 162.7 956 0 6 Image Chart
2009 10 28 12 50.5 164.8 956 0 6 Image Chart
2009 10 28 18 51.1 166.7 960 0 6 Image Chart
2009 10 29 00 51.3 168.5 968 0 6 Image Chart
2009 10 29 06 51.6 170.5 974 0 6 Image Chart
2009 10 29 12 52.3 172.1 980 0 6 Image Chart
2009 10 29 18 53.3 172.8 984 0 6 Image Chart
2009 10 30 00 54.1 173.5 990 0 6 Image Chart
2009 10 30 06 55.2 173.8 992 0 6 Image Chart
2009 10 30 12 56.1 173.8 994 0 6 Image Chart
2009 10 30 18 56.9 173.6 996 0 6 Image Chart
Japan Meteorological Agency Best Track Data | Correction Date : 2009-12-08
< Typhoon 200919 2009 Season Typhoon 200921 >

Help